Time;durP1;ratioP1;P1;durP2;ratioP2;P2;SDS_P1;SDS_P2;PMS_P1;PMS_P2;Temp;Humidity;BMP_temperature;BMP_pressure;BME280_temperature;BME280_humidity;BME280_pressure;Samples;Min_cycle;Max_cycle;Signal;HPM_P1;HPM_P2
2022/07/09 00:00:39;;;;;;;10.02;7.25;;;20.10;99.90;;;;;;5079239;28;20296;-71
2022/07/09 00:03:04;;;;;;;16.73;12.75;;;20.10;99.90;;;;;;5079603;28;20036;-71
2022/07/09 00:05:30;;;;;;;14.00;12.45;;;20.00;99.90;;;;;;5079651;28;20388;-71
2022/07/09 00:07:56;;;;;;;17.63;12.02;;;20.00;99.90;;;;;;5078878;28;20040;-71
2022/07/09 00:10:22;;;;;;;14.70;10.55;;;19.90;99.90;;;;;;5079180;28;20028;-71
2022/07/09 00:12:48;;;;;;;21.08;16.40;;;20.00;99.90;;;;;;5079049;28;20083;-71
2022/07/09 00:15:13;;;;;;;20.83;16.00;;;20.00;99.90;;;;;;5078871;28;20104;-71
2022/07/09 00:17:39;;;;;;;20.20;14.98;;;20.00;99.90;;;;;;5079167;28;20046;-71
2022/07/09 00:20:06;;;;;;;17.20;13.68;;;20.00;99.90;;;;;;5079024;28;20021;-71
2022/07/09 00:22:32;;;;;;;12.13;10.43;;;19.90;99.90;;;;;;5078088;28;20036;-70
2022/07/09 00:24:59;;;;;;;11.23;9.75;;;19.80;99.90;;;;;;5078484;28;20290;-71
2022/07/09 00:27:24;;;;;;;14.10;10.57;;;19.80;99.90;;;;;;5079797;28;20032;-71
2022/07/09 00:29:50;;;;;;;12.40;9.90;;;19.70;99.90;;;;;;5079870;28;20024;-71
2022/07/09 00:32:18;;;;;;;14.57;11.20;;;19.70;99.90;;;;;;5078730;28;20033;-71
2022/07/09 00:34:44;;;;;;;15.15;10.70;;;19.70;99.90;;;;;;5062173;28;20150;-71
2022/07/09 00:37:10;;;;;;;13.27;10.30;;;19.70;99.90;;;;;;5078491;28;20028;-71
2022/07/09 00:39:36;;;;;;;16.15;11.75;;;19.60;99.90;;;;;;5079231;28;20292;-71
2022/07/09 00:42:07;;;;;;;15.25;11.63;;;19.50;99.90;;;;;;5062742;28;20021;-71
2022/07/09 00:44:33;;;;;;;14.60;9.13;;;19.50;99.90;;;;;;5079431;28;20025;-71
2022/07/09 00:46:59;;;;;;;11.75;9.98;;;19.50;99.90;;;;;;5079120;28;20033;-71
2022/07/09 00:49:28;;;;;;;11.38;9.88;;;19.40;99.90;;;;;;5079062;28;20078;-71
2022/07/09 00:51:55;;;;;;;13.80;9.77;;;19.40;99.90;;;;;;5078973;28;20021;-71
2022/07/09 00:54:22;;;;;;;13.55;10.00;;;19.40;99.90;;;;;;5078010;28;20044;-70
2022/07/09 00:56:48;;;;;;;10.00;9.00;;;19.40;99.90;;;;;;5078657;28;20097;-71
2022/07/09 00:59:14;;;;;;;12.48;9.70;;;19.30;99.90;;;;;;5078608;28;20385;-70
2022/07/09 01:01:40;;;;;;;15.60;10.48;;;19.30;99.90;;;;;;5078898;28;20043;-71
2022/07/09 01:04:06;;;;;;;12.52;10.63;;;19.30;99.90;;;;;;5077693;28;20085;-71
2022/07/09 01:06:34;;;;;;;13.43;10.23;;;19.30;99.90;;;;;;5078110;28;20040;-71
2022/07/09 01:09:03;;;;;;;12.52;10.57;;;19.30;99.90;;;;;;5078737;28;20040;-71
2022/07/09 01:11:30;;;;;;;13.68;10.57;;;19.20;99.90;;;;;;5060782;28;20039;-71
2022/07/09 01:13:56;;;;;;;11.27;9.60;;;19.20;99.90;;;;;;5077122;28;20380;-71
2022/07/09 01:16:29;;;;;;;16.00;11.45;;;19.20;99.90;;;;;;5077055;28;20082;-71
2022/07/09 01:18:55;;;;;;;13.57;10.50;;;19.20;99.90;;;;;;5078147;28;20044;-71
2022/07/09 01:21:21;;;;;;;13.18;10.82;;;19.20;99.90;;;;;;5078297;28;20104;-71
2022/07/09 01:23:47;;;;;;;13.15;10.25;;;19.20;99.90;;;;;;5077698;28;20032;-72
2022/07/09 01:26:12;;;;;;;13.73;11.23;;;19.20;99.90;;;;;;5077736;28;20449;-71
2022/07/09 01:28:38;;;;;;;14.38;12.20;;;19.10;99.90;;;;;;5077072;28;20052;-71
2022/07/09 01:31:04;;;;;;;16.10;11.80;;;19.10;99.90;;;;;;5078305;28;20044;-71
2022/07/09 01:33:31;;;;;;;15.95;12.27;;;19.10;99.90;;;;;;5077319;28;20039;-71
2022/07/09 01:35:57;;;;;;;17.45;12.35;;;19.00;99.90;;;;;;5076951;28;20036;-71
2022/07/09 01:38:23;;;;;;;11.40;10.25;;;19.00;99.90;;;;;;5077302;28;20028;-72
2022/07/09 01:40:49;;;;;;;11.77;10.57;;;18.90;99.90;;;;;;5078048;28;20020;-71
2022/07/09 01:43:15;;;;;;;13.63;10.93;;;18.80;99.90;;;;;;5077837;28;20089;-71
2022/07/09 01:45:41;;;;;;;15.70;12.10;;;18.80;99.90;;;;;;5077485;28;20089;-71
2022/07/09 01:48:07;;;;;;;16.20;13.32;;;18.90;99.90;;;;;;5077426;28;20028;-71
2022/07/09 01:50:32;;;;;;;18.00;12.73;;;18.90;99.90;;;;;;5078395;28;20119;-71
2022/07/09 01:52:58;;;;;;;17.23;13.68;;;18.90;99.90;;;;;;5076930;28;20040;-70
2022/07/09 01:55:24;;;;;;;19.00;14.40;;;18.90;99.90;;;;;;5076216;28;20041;-70
2022/07/09 01:57:50;;;;;;;15.52;13.77;;;18.70;99.90;;;;;;5059553;28;20040;-71
2022/07/09 02:00:18;;;;;;;18.95;15.15;;;18.70;99.90;;;;;;5059736;28;20166;-71
2022/07/09 02:02:44;;;;;;;20.67;17.25;;;18.60;99.90;;;;;;5077794;28;20050;-71
2022/07/09 02:05:10;;;;;;;20.45;17.13;;;18.60;99.90;;;;;;5077497;28;20104;-71
2022/07/09 02:07:36;;;;;;;22.15;18.17;;;18.50;99.90;;;;;;5076366;28;20033;-71
2022/07/09 02:10:03;;;;;;;26.15;18.25;;;18.60;99.90;;;;;;5076397;28;20079;-71
2022/07/09 02:12:30;;;;;;;28.13;20.17;;;18.60;99.90;;;;;;5077286;28;20044;-71
2022/07/09 02:14:55;;;;;;;26.45;19.63;;;18.60;99.90;;;;;;5077251;28;20414;-71
2022/07/09 02:17:21;;;;;;;26.23;20.95;;;18.50;99.90;;;;;;5076885;28;20040;-71
2022/07/09 02:19:47;;;;;;;26.60;21.23;;;18.50;99.90;;;;;;5076524;28;20029;-71
2022/07/09 02:22:13;;;;;;;27.08;22.88;;;18.40;99.90;;;;;;5077869;28;20036;-71
2022/07/09 02:24:38;;;;;;;25.52;20.80;;;18.40;99.90;;;;;;5076715;28;20033;-71
2022/07/09 02:27:05;;;;;;;26.25;22.02;;;18.30;99.90;;;;;;5076881;28;20024;-71
2022/07/09 02:29:31;;;;;;;27.90;22.55;;;18.40;99.90;;;;;;5076713;28;20028;-71
2022/07/09 02:31:57;;;;;;;27.23;22.50;;;18.40;99.90;;;;;;5076053;28;20032;-71
2022/07/09 02:34:24;;;;;;;30.35;23.40;;;18.50;99.90;;;;;;5077455;28;20424;-71
2022/07/09 02:36:51;;;;;;;28.88;23.02;;;18.50;99.90;;;;;;5076448;28;20039;-71
2022/07/09 02:39:17;;;;;;;26.35;22.17;;;18.50;99.90;;;;;;5076579;28;20024;-71
2022/07/09 02:41:43;;;;;;;26.80;23.08;;;18.60;99.90;;;;;;5076042;28;20029;-71
2022/07/09 02:44:09;;;;;;;30.20;23.30;;;18.60;99.90;;;;;;5076970;28;20127;-71
2022/07/09 02:46:35;;;;;;;29.00;22.77;;;18.60;99.90;;;;;;5076621;28;20052;-71
2022/07/09 02:49:00;;;;;;;29.45;22.98;;;18.50;99.90;;;;;;5076587;28;20032;-71
2022/07/09 02:51:26;;;;;;;27.58;21.95;;;18.40;99.90;;;;;;5076649;28;20059;-71
2022/07/09 02:53:52;;;;;;;26.35;21.75;;;18.40;99.90;;;;;;5075991;28;20028;-71
2022/07/09 02:56:18;;;;;;;24.95;21.98;;;18.40;99.90;;;;;;5077162;28;20124;-70
2022/07/09 02:58:44;;;;;;;30.40;23.70;;;18.50;99.90;;;;;;5076963;28;20108;-71
2022/07/09 03:01:09;;;;;;;26.73;20.90;;;18.60;99.90;;;;;;5076397;28;20132;-71
2022/07/09 03:03:35;;;;;;;26.38;20.88;;;18.60;99.90;;;;;;5076462;28;20115;-72
2022/07/09 03:06:02;;;;;;;27.90;20.80;;;18.70;99.90;;;;;;5076213;28;20025;-71
2022/07/09 03:08:28;;;;;;;31.08;21.45;;;18.80;99.90;;;;;;5076809;28;20065;-72
2022/07/09 03:10:54;;;;;;;23.92;19.95;;;18.90;99.90;;;;;;5076384;28;20063;-71
2022/07/09 03:13:20;;;;;;;26.63;20.63;;;18.80;99.90;;;;;;5076722;28;20068;-71
2022/07/09 03:15:46;;;;;;;24.88;20.15;;;18.80;99.90;;;;;;5076585;28;20345;-71
2022/07/09 03:18:11;;;;;;;23.30;20.58;;;18.70;99.90;;;;;;5076159;28;20347;-71
2022/07/09 03:20:38;;;;;;;25.42;19.73;;;18.60;99.90;;;;;;5076421;28;20029;-71
2022/07/09 03:23:04;;;;;;;24.35;19.95;;;18.70;99.90;;;;;;5076308;28;20024;-71
2022/07/09 03:25:30;;;;;;;22.70;18.15;;;18.70;99.90;;;;;;5076344;28;20086;-71
2022/07/09 03:27:57;;;;;;;20.48;18.25;;;18.80;99.90;;;;;;5078550;28;20029;-71
2022/07/09 03:30:23;;;;;;;22.60;17.92;;;18.80;99.90;;;;;;5080090;28;20443;-72
2022/07/09 03:32:49;;;;;;;21.95;17.55;;;18.80;99.90;;;;;;5079197;28;20039;-71
2022/07/09 03:35:15;;;;;;;21.25;18.58;;;18.90;99.90;;;;;;5079738;28;20093;-72
2022/07/09 03:37:41;;;;;;;22.10;18.77;;;18.90;99.90;;;;;;5080010;28;20036;-71
2022/07/09 03:40:08;;;;;;;20.77;18.58;;;18.90;99.90;;;;;;5079371;28;20032;-72
2022/07/09 03:42:34;;;;;;;20.60;17.45;;;19.00;99.90;;;;;;5079980;28;20021;-72
2022/07/09 03:45:00;;;;;;;48.50;36.72;;;19.00;99.90;;;;;;5078645;28;20113;-72
2022/07/09 03:47:26;;;;;;;22.05;18.08;;;18.90;99.90;;;;;;5080249;28;20036;-71
2022/07/09 03:49:52;;;;;;;21.88;18.45;;;18.80;99.90;;;;;;5079493;28;20316;-72
2022/07/09 03:52:18;;;;;;;23.08;18.17;;;18.80;99.90;;;;;;5080107;28;20039;-71
2022/07/09 03:54:44;;;;;;;23.80;19.30;;;18.80;99.90;;;;;;5062097;28;20389;-71
2022/07/09 03:57:10;;;;;;;27.98;20.67;;;18.70;99.90;;;;;;5079351;28;20037;-71
2022/07/09 03:59:36;;;;;;;24.38;21.08;;;18.50;99.90;;;;;;5079928;28;20024;-71
2022/07/09 04:02:03;;;;;;;23.17;20.65;;;18.40;99.90;;;;;;5079523;28;20031;-71
2022/07/09 04:04:28;;;;;;;23.85;21.27;;;18.30;99.90;;;;;;5079284;28;20040;-71
2022/07/09 04:06:55;;;;;;;25.95;21.88;;;18.30;99.90;;;;;;5078466;28;20037;-71
2022/07/09 04:09:21;;;;;;;24.73;21.30;;;18.40;99.90;;;;;;5078533;28;20401;-72
2022/07/09 04:11:47;;;;;;;24.33;21.08;;;18.50;99.90;;;;;;5079513;28;20047;-71
2022/07/09 04:14:14;;;;;;;24.42;21.85;;;18.50;99.90;;;;;;5078288;28;20108;-71
2022/07/09 04:16:40;;;;;;;25.77;22.13;;;18.50;99.90;;;;;;5078907;28;20040;-71
2022/07/09 04:19:07;;;;;;;28.20;21.80;;;18.40;99.90;;;;;;5079131;28;20044;-71
2022/07/09 04:21:32;;;;;;;30.08;22.48;;;18.30;99.90;;;;;;5079645;28;20059;-71
2022/07/09 04:23:58;;;;;;;26.83;22.70;;;18.10;99.90;;;;;;5079264;28;20075;-71
2022/07/09 04:26:24;;;;;;;27.98;23.13;;;18.00;99.90;;;;;;5079083;28;20016;-71
2022/07/09 04:28:50;;;;;;;27.38;22.85;;;18.00;99.90;;;;;;5078104;28;20052;-72
2022/07/09 04:31:19;;;;;;;27.23;22.38;;;18.00;99.90;;;;;;5079151;28;20296;-72
2022/07/09 04:33:45;;;;;;;29.52;23.92;;;18.00;99.90;;;;;;5078705;28;20040;-72
2022/07/09 04:36:11;;;;;;;29.67;23.90;;;18.00;99.90;;;;;;5077840;28;20370;-71
2022/07/09 04:38:37;;;;;;;28.35;23.83;;;18.20;99.90;;;;;;5077425;28;20032;-71
2022/07/09 04:41:03;;;;;;;26.55;22.33;;;18.10;99.90;;;;;;5078869;28;20028;-71
2022/07/09 04:43:29;;;;;;;25.10;22.50;;;18.10;99.90;;;;;;5078559;28;20408;-72
2022/07/09 04:45:55;;;;;;;25.02;22.38;;;18.10;99.90;;;;;;5079627;28;20028;-72
2022/07/09 04:48:21;;;;;;;29.23;23.05;;;18.20;99.90;;;;;;5079011;28;20047;-72
2022/07/09 04:50:47;;;;;;;30.15;24.95;;;18.30;99.90;;;;;;5078380;28;20411;-72
2022/07/09 04:53:13;;;;;;;27.80;23.30;;;18.30;99.90;;;;;;5078057;28;20045;-71
2022/07/09 04:55:38;;;;;;;33.30;24.88;;;18.40;99.90;;;;;;5078228;28;20057;-71
2022/07/09 04:58:04;;;;;;;27.35;23.25;;;18.40;99.90;;;;;;5060747;28;20036;-71
2022/07/09 05:00:30;;;;;;;26.63;22.65;;;18.40;99.90;;;;;;5078743;28;20052;-71
2022/07/09 05:02:56;;;;;;;24.38;21.08;;;18.40;99.90;;;;;;5078100;28;20119;-71
2022/07/09 05:05:23;;;;;;;26.83;21.98;;;18.60;99.90;;;;;;5078077;28;20047;-72
2022/07/09 05:07:49;;;;;;;23.33;20.10;;;18.70;99.90;;;;;;5077957;28;20066;-71
2022/07/09 05:10:15;;;;;;;26.98;21.60;;;18.90;99.90;;;;;;5077957;28;20112;-72
2022/07/09 05:12:40;;;;;;;24.40;21.25;;;18.90;99.90;;;;;;5077887;28;20075;-72
2022/07/09 05:15:07;;;;;;;24.48;20.67;;;18.70;99.90;;;;;;5078436;28;20029;-72
2022/07/09 05:17:34;;;;;;;22.55;20.13;;;18.70;99.90;;;;;;5078043;28;20044;-72
2022/07/09 05:20:01;;;;;;;26.05;22.23;;;18.80;99.90;;;;;;5077721;28;20028;-72
2022/07/09 05:22:27;;;;;;;23.92;20.70;;;19.00;99.90;;;;;;5077368;28;20036;-71
2022/07/09 05:24:52;;;;;;;24.98;20.60;;;19.10;99.90;;;;;;5077588;28;20369;-71
2022/07/09 05:27:18;;;;;;;29.30;20.88;;;19.20;99.90;;;;;;5077144;28;20397;-71
2022/07/09 05:29:44;;;;;;;20.42;18.17;;;19.20;99.90;;;;;;5078053;28;20308;-71
2022/07/09 05:32:09;;;;;;;21.38;17.88;;;19.40;99.90;;;;;;5077665;28;20071;-70
2022/07/09 05:34:35;;;;;;;20.95;18.52;;;19.70;99.90;;;;;;5076971;28;20509;-70
2022/07/09 05:37:01;;;;;;;19.83;17.73;;;19.90;99.90;;;;;;5077866;28;20032;-71
2022/07/09 05:39:27;;;;;;;22.70;16.98;;;20.10;99.90;;;;;;5078160;28;20033;-70
2022/07/09 05:41:53;;;;;;;18.83;16.80;;;20.10;99.90;;;;;;5077834;28;20086;-70
2022/07/09 05:44:18;;;;;;;22.13;16.60;;;20.10;99.90;;;;;;5077162;28;20029;-71
2022/07/09 05:46:44;;;;;;;20.13;15.95;;;19.90;99.90;;;;;;5077929;28;20032;-70
2022/07/09 05:49:10;;;;;;;18.50;15.48;;;19.90;99.90;;;;;;5060469;28;20062;-69
2022/07/09 05:51:36;;;;;;;16.23;13.63;;;19.90;99.90;;;;;;5076574;28;20044;-71
2022/07/09 05:54:02;;;;;;;22.27;16.02;;;19.80;99.90;;;;;;5059857;28;20059;-69
2022/07/09 05:56:27;;;;;;;15.75;14.15;;;19.90;99.90;;;;;;5077571;28;20032;-71
2022/07/09 05:58:53;;;;;;;16.42;13.63;;;19.90;99.90;;;;;;5043814;28;20179;-71
2022/07/09 06:01:19;;;;;;;19.08;14.43;;;19.70;99.90;;;;;;5077483;28;20029;-72
2022/07/09 06:03:46;;;;;;;16.80;14.57;;;19.90;99.90;;;;;;5077471;28;20032;-71
2022/07/09 06:06:12;;;;;;;17.25;13.73;;;20.00;99.90;;;;;;5076639;28;20107;-71
2022/07/09 06:08:38;;;;;;;14.85;13.25;;;19.90;99.90;;;;;;5078405;28;20059;-72
2022/07/09 06:11:04;;;;;;;17.55;12.40;;;20.00;99.90;;;;;;5078007;28;20074;-72
2022/07/09 06:13:30;;;;;;;20.30;12.82;;;20.30;99.90;;;;;;5076514;28;20402;-72
2022/07/09 06:15:56;;;;;;;18.10;13.57;;;20.60;99.90;;;;;;5076239;28;20098;-70
2022/07/09 06:18:22;;;;;;;17.88;14.77;;;20.50;99.90;;;;;;5077350;28;20044;-71
2022/07/09 06:20:48;;;;;;;17.48;13.93;;;20.60;99.90;;;;;;5077787;28;20082;-71
2022/07/09 06:23:14;;;;;;;16.50;13.55;;;20.30;99.90;;;;;;5077452;28;20033;-72
2022/07/09 06:25:40;;;;;;;16.30;12.63;;;20.50;99.90;;;;;;5077187;28;20040;-71
2022/07/09 06:28:06;;;;;;;17.27;12.63;;;20.80;99.90;;;;;;5060037;28;20318;-73
2022/07/09 06:30:33;;;;;;;12.30;9.82;;;21.20;99.90;;;;;;5078567;28;20028;-71
2022/07/09 06:33:00;;;;;;;17.10;12.38;;;21.40;99.90;;;;;;5076288;28;20304;-72
2022/07/09 06:35:26;;;;;;;16.08;12.55;;;21.60;99.90;;;;;;5076073;28;20028;-70
2022/07/09 06:37:52;;;;;;;18.63;13.15;;;22.00;99.90;;;;;;5076256;28;20087;-71
2022/07/09 06:40:18;;;;;;;14.32;11.50;;;21.90;99.90;;;;;;5076773;28;20060;-69
2022/07/09 06:42:44;;;;;;;14.90;12.35;;;21.80;99.90;;;;;;5076820;28;20059;-71
2022/07/09 06:45:32;;;;;;;13.52;11.45;;;21.90;99.90;;;;;;5048987;28;20166;-71
2022/07/09 06:47:58;;;;;;;14.80;12.77;;;21.90;99.90;;;;;;5076701;28;20052;-70
2022/07/09 06:50:24;;;;;;;16.52;10.63;;;22.00;99.90;;;;;;5076898;28;20044;-72
2022/07/09 06:52:50;;;;;;;12.27;10.90;;;21.80;99.90;;;;;;5077151;28;20040;-71
2022/07/09 06:55:15;;;;;;;16.90;10.95;;;21.80;99.90;;;;;;5075747;28;20044;-72
2022/07/09 06:57:41;;;;;;;17.73;11.85;;;21.80;99.90;;;;;;5075834;28;20032;-71
2022/07/09 07:00:07;;;;;;;13.68;12.27;;;21.80;99.90;;;;;;5076879;28;20063;-68
2022/07/09 07:02:33;;;;;;;19.70;13.02;;;21.80;99.90;;;;;;5077519;28;20029;-71
2022/07/09 07:04:59;;;;;;;21.38;14.27;;;21.70;99.90;;;;;;5079708;28;20036;-70
2022/07/09 07:07:25;;;;;;;21.35;15.18;;;21.60;99.90;;;;;;5080367;28;20347;-71
2022/07/09 07:09:51;;;;;;;17.88;14.73;;;21.50;99.90;;;;;;5079625;28;20412;-71
2022/07/09 07:12:16;;;;;;;16.25;14.23;;;21.50;99.90;;;;;;5080780;28;20036;-69
2022/07/09 07:14:42;;;;;;;21.70;15.45;;;21.70;99.90;;;;;;5080422;28;20032;-68
2022/07/09 07:17:09;;;;;;;23.15;16.52;;;21.80;99.90;;;;;;5080296;28;20036;-71
2022/07/09 07:19:35;;;;;;;19.05;17.02;;;21.70;99.90;;;;;;5079754;28;20458;-67
2022/07/09 07:22:01;;;;;;;19.88;17.35;;;21.50;99.90;;;;;;5079290;28;20151;-72
2022/07/09 07:24:27;;;;;;;19.75;17.60;;;21.70;99.90;;;;;;5079497;28;20028;-68
2022/07/09 07:26:54;;;;;;;20.90;17.55;;;21.80;99.90;;;;;;5080194;28;20101;-72
2022/07/09 07:29:20;;;;;;;21.45;18.30;;;21.80;99.90;;;;;;5079999;28;20408;-72
2022/07/09 07:31:46;;;;;;;28.52;18.65;;;21.90;99.90;;;;;;5079342;28;20363;-71
2022/07/09 07:34:12;;;;;;;18.48;16.23;;;22.30;99.90;;;;;;5062950;28;20079;-70
2022/07/09 07:36:38;;;;;;;20.25;18.10;;;22.30;99.90;;;;;;5079855;28;20037;-69
2022/07/09 07:39:04;;;;;;;22.10;19.63;;;22.10;99.90;;;;;;5079088;28;20343;-68
2022/07/09 07:41:29;;;;;;;24.75;19.10;;;22.10;99.90;;;;;;5079802;28;20048;-70
2022/07/09 07:43:55;;;;;;;23.92;21.02;;;21.90;99.90;;;;;;5080257;28;20107;-68
2022/07/09 07:46:21;;;;;;;24.23;20.13;;;22.00;99.90;;;;;;5080744;28;20037;-66
2022/07/09 07:48:47;;;;;;;23.45;20.30;;;22.10;99.90;;;;;;5079597;28;20029;-64
2022/07/09 07:51:12;;;;;;;28.30;21.33;;;22.20;99.90;;;;;;5079624;28;20028;-63
2022/07/09 07:53:38;;;;;;;25.27;20.92;;;22.10;99.90;;;;;;5079518;28;20060;-64
2022/07/09 07:56:05;;;;;;;25.23;21.33;;;22.20;99.90;;;;;;5079423;28;20072;-62
2022/07/09 07:58:31;;;;;;;26.00;21.17;;;22.20;99.90;;;;;;5079441;28;20036;-62
2022/07/09 08:00:57;;;;;;;23.35;20.17;;;22.10;99.90;;;;;;5079420;28;20400;-65
2022/07/09 08:03:23;;;;;;;24.50;21.30;;;21.80;99.90;;;;;;5078658;28;20400;-66
2022/07/09 08:05:49;;;;;;;23.15;20.25;;;21.80;99.90;;;;;;5079313;28;20060;-65
2022/07/09 08:08:15;;;;;;;25.45;21.88;;;21.90;99.90;;;;;;5079222;28;20033;-64
2022/07/09 08:10:40;;;;;;;25.27;22.25;;;21.90;99.90;;;;;;5079177;28;20039;-65
2022/07/09 08:13:06;;;;;;;28.05;20.95;;;21.90;99.90;;;;;;5079180;28;20040;-66
2022/07/09 08:15:32;;;;;;;26.52;20.42;;;22.00;99.90;;;;;;5078093;28;20028;-65
2022/07/09 08:17:58;;;;;;;26.00;21.60;;;22.10;99.90;;;;;;5079055;28;20140;-65
2022/07/09 08:20:24;;;;;;;26.27;21.05;;;22.10;99.90;;;;;;5079000;28;20098;-65
2022/07/09 08:22:49;;;;;;;23.38;19.10;;;22.20;99.90;;;;;;5079156;28;20390;-63
2022/07/09 08:25:15;;;;;;;26.73;19.05;;;22.30;99.90;;;;;;5078909;28;20048;-67
2022/07/09 08:27:41;;;;;;;22.45;18.02;;;22.50;99.90;;;;;;5079043;28;20037;-65
2022/07/09 08:30:07;;;;;;;23.77;18.33;;;22.70;99.90;;;;;;5078878;28;20073;-63
2022/07/09 08:32:33;;;;;;;23.10;19.08;;;23.10;99.90;;;;;;5078253;28;20073;-63
2022/07/09 08:34:59;;;;;;;22.20;17.83;;;23.30;99.90;;;;;;5077975;28;20040;-64
2022/07/09 08:37:25;;;;;;;20.45;18.25;;;23.60;99.90;;;;;;5078405;28;20334;-63
2022/07/09 08:39:51;;;;;;;20.33;16.95;;;23.90;99.90;;;;;;5078693;28;20082;-65
2022/07/09 08:42:17;;;;;;;18.02;15.55;;;24.00;99.90;;;;;;5078652;28;20054;-63
2022/07/09 08:44:47;;;;;;;19.17;14.90;;;23.70;99.90;;;;;;5078578;28;20116;-65
2022/07/09 08:47:15;;;;;;;19.02;14.82;;;23.70;99.90;;;;;;5078438;28;20029;-66
2022/07/09 08:49:42;;;;;;;16.63;14.13;;;23.90;99.90;;;;;;5078447;28;20024;-63
2022/07/09 08:52:09;;;;;;;18.75;14.88;;;24.00;99.90;;;;;;5078615;28;20324;-65
2022/07/09 08:54:39;;;;;;;17.48;15.57;;;24.10;99.90;;;;;;5078260;28;20367;-62
2022/07/09 08:57:05;;;;;;;18.42;14.68;;;24.10;99.90;;;;;;5078277;28;20112;-62
2022/07/09 08:59:32;;;;;;;19.15;14.50;;;24.10;99.90;;;;;;5078282;28;20033;-64
2022/07/09 09:02:04;;;;;;;18.35;13.60;;;24.20;99.90;;;;;;5078242;28;20089;-65
2022/07/09 09:04:30;;;;;;;14.43;13.10;;;24.10;99.90;;;;;;5078078;28;20036;-63
2022/07/09 09:06:56;;;;;;;15.88;12.15;;;24.30;99.90;;;;;;5078126;28;20029;-65
2022/07/09 09:09:22;;;;;;;13.40;12.02;;;24.40;99.90;;;;;;5078188;28;20039;-68
2022/07/09 09:11:52;;;;;;;14.30;11.50;;;24.20;99.90;;;;;;5078077;28;20028;-65
2022/07/09 09:14:22;;;;;;;11.50;10.30;;;24.30;99.90;;;;;;5078447;28;20052;-65
2022/07/09 09:16:48;;;;;;;12.63;11.07;;;24.30;99.90;;;;;;5077846;28;20435;-66
2022/07/09 09:19:14;;;;;;;12.30;11.00;;;24.70;99.90;;;;;;5077775;28;20032;-64
2022/07/09 09:21:40;;;;;;;15.57;10.15;;;25.10;99.90;;;;;;5078092;28;20028;-65
2022/07/09 09:24:06;;;;;;;13.38;9.85;;;25.20;99.90;;;;;;5077726;28;20027;-63
2022/07/09 09:26:35;;;;;;;12.23;9.93;;;25.10;99.90;;;;;;5077819;28;20400;-67
2022/07/09 09:29:03;;;;;;;11.52;8.82;;;24.90;99.90;;;;;;5077610;28;20047;-65
2022/07/09 09:31:36;;;;;;;8.93;7.72;;;24.70;99.90;;;;;;5078238;28;20120;-65
2022/07/09 09:34:08;;;;;;;9.13;7.10;;;24.00;99.90;;;;;;5076766;28;20039;-63
2022/07/09 09:36:37;;;;;;;9.30;7.55;;;24.00;99.90;;;;;;5078084;28;20020;-64
2022/07/09 09:39:48;;;;;;;11.25;7.20;;;24.30;99.90;;;;;;5077331;28;20028;-65
2022/07/09 09:42:15;;;;;;;14.48;7.72;;;24.60;99.90;;;;;;5076273;28;20312;-65
2022/07/09 09:44:42;;;;;;;7.95;7.13;;;24.80;99.90;;;;;;5074158;28;20040;-65
2022/07/09 09:47:09;;;;;;;10.90;7.63;;;25.00;99.90;;;;;;5077321;28;20059;-65
2022/07/09 09:49:41;;;;;;;8.57;6.63;;;24.90;99.90;;;;;;5060109;28;20064;-63
2022/07/09 09:52:08;;;;;;;6.13;4.80;;;24.90;99.90;;;;;;5077323;28;20020;-69
2022/07/09 09:54:36;;;;;;;8.23;5.50;;;25.10;99.90;;;;;;5076937;28;20036;-65
2022/07/09 09:57:08;;;;;;;7.70;4.18;;;25.20;99.90;;;;;;5077178;28;20057;-66
2022/07/09 09:59:38;;;;;;;4.60;3.33;;;25.40;99.90;;;;;;5076967;28;20419;-64
2022/07/09 10:02:09;;;;;;;3.60;3.20;;;25.40;99.90;;;;;;5077033;28;20036;-64
2022/07/09 10:04:43;;;;;;;4.40;2.85;;;25.30;99.90;;;;;;5077026;28;20077;-65
2022/07/09 10:07:12;;;;;;;4.22;3.38;;;25.20;99.90;;;;;;5077562;28;20048;-65
2022/07/09 10:09:37;;;;;;;3.92;2.83;;;25.20;99.90;;;;;;5076948;28;20024;-61
2022/07/09 10:12:04;;;;;;;5.50;2.97;;;25.30;99.90;;;;;;5076891;28;20047;-64
2022/07/09 10:14:32;;;;;;;6.13;2.70;;;25.10;99.90;;;;;;5077006;28;20051;-67
2022/07/09 10:17:10;;;;;;;5.10;2.97;;;24.80;99.90;;;;;;5076942;28;20434;-62
2022/07/09 10:19:37;;;;;;;4.72;2.38;;;24.90;99.90;;;;;;5077019;28;20032;-65
2022/07/09 10:22:03;;;;;;;3.95;2.00;;;25.20;99.90;;;;;;5076902;28;20107;-62
2022/07/09 10:24:32;;;;;;;3.60;2.20;;;25.40;99.90;;;;;;5076876;28;20396;-62
2022/07/09 10:27:07;;;;;;;4.35;1.90;;;25.70;99.90;;;;;;5076954;28;20033;-66
2022/07/09 10:29:34;;;;;;;3.72;1.88;;;25.60;99.90;;;;;;5076811;28;20029;-62
2022/07/09 10:32:01;;;;;;;3.03;1.55;;;25.40;99.90;;;;;;5076171;28;20079;-64
2022/07/09 10:34:38;;;;;;;2.85;1.40;;;25.20;99.90;;;;;;5076881;28;20032;-62
2022/07/09 10:37:05;;;;;;;2.67;1.27;;;24.90;99.90;;;;;;5077467;28;20337;-64
2022/07/09 10:39:32;;;;;;;3.63;1.50;;;25.00;99.90;;;;;;5080933;28;20032;-65
2022/07/09 10:42:05;;;;;;;2.60;1.10;;;25.10;99.90;;;;;;5080857;28;20062;-65
2022/07/09 10:44:35;;;;;;;4.65;1.65;;;25.30;99.90;;;;;;5080959;28;20029;-65
2022/07/09 10:47:02;;;;;;;3.63;1.73;;;25.10;99.90;;;;;;5080621;28;20123;-63
2022/07/09 10:49:29;;;;;;;2.47;1.65;;;25.20;99.90;;;;;;5080704;28;20089;-62
2022/07/09 10:51:58;;;;;;;2.95;1.00;;;25.70;99.90;;;;;;5080692;28;20033;-64
2022/07/09 10:54:24;;;;;;;1.85;0.85;;;25.60;99.90;;;;;;5079650;28;20049;-62
2022/07/09 10:56:52;;;;;;;1.52;0.82;;;25.60;99.90;;;;;;5080582;28;20036;-67
2022/07/09 10:59:18;;;;;;;2.30;0.80;;;25.60;99.90;;;;;;5080472;28;20127;-64
2022/07/09 11:01:44;;;;;;;1.40;0.70;;;25.70;99.90;;;;;;5080478;28;20043;-62
2022/07/09 11:04:11;;;;;;;2.03;0.80;;;25.80;99.90;;;;;;5080562;28;20492;-61
2022/07/09 11:06:49;;;;;;;0.73;0.55;;;25.90;99.90;;;;;;5079821;28;20041;-65
2022/07/09 11:09:16;;;;;;;2.35;0.80;;;25.90;99.90;;;;;;5079697;28;20119;-66
2022/07/09 11:11:43;;;;;;;2.00;0.73;;;25.90;99.90;;;;;;5080363;28;20028;-63
2022/07/09 11:14:13;;;;;;;2.55;0.95;;;26.80;99.90;;;;;;5079573;28;20029;-63
2022/07/09 11:16:39;;;;;;;4.03;1.20;;;26.80;99.90;;;;;;5080257;28;20328;-63
2022/07/09 11:19:15;;;;;;;3.55;0.90;;;26.70;99.90;;;;;;5080086;28;20064;-63
2022/07/09 11:21:42;;;;;;;2.17;0.85;;;27.00;99.90;;;;;;5079616;28;20038;-63
2022/07/09 11:24:23;;;;;;;1.65;0.80;;;27.30;99.90;;;;;;5080125;28;20111;-65
2022/07/09 11:26:49;;;;;;;1.50;0.90;;;27.40;99.90;;;;;;5080875;28;20035;-66
2022/07/09 11:29:17;;;;;;;5.13;0.77;;;27.10;99.90;;;;;;5079963;28;20352;-62
2022/07/09 11:31:50;;;;;;;2.70;0.70;;;27.30;99.90;;;;;;5080111;28;20028;-63
2022/07/09 11:34:17;;;;;;;1.52;0.70;;;27.20;99.90;;;;;;5079261;28;20274;-67
2022/07/09 11:36:50;;;;;;;1.73;0.60;;;27.20;99.90;;;;;;5079225;28;20028;-63
2022/07/09 11:39:30;;;;;;;2.25;0.70;;;27.10;99.90;;;;;;5080037;28;20020;-62
2022/07/09 11:41:59;;;;;;;1.42;0.60;;;27.20;99.90;;;;;;5079899;28;20032;-64
2022/07/09 11:44:33;;;;;;;3.45;0.80;;;26.90;99.90;;;;;;5079738;28;20047;-65
2022/07/09 11:47:06;;;;;;;2.28;0.80;;;27.50;99.90;;;;;;5080274;28;20029;-66
2022/07/09 11:49:33;;;;;;;1.83;0.85;;;27.90;99.90;;;;;;5079506;28;20273;-64
2022/07/09 11:51:59;;;;;;;2.63;0.70;;;27.40;99.90;;;;;;5078960;28;20055;-64
2022/07/09 11:54:29;;;;;;;2.55;0.80;;;26.90;99.90;;;;;;5079240;28;20049;-64
2022/07/09 11:56:54;;;;;;;1.35;0.75;;;26.70;99.90;;;;;;5079552;28;20020;-63
2022/07/09 11:59:34;;;;;;;1.23;0.60;;;26.40;99.90;;;;;;5079367;28;20039;-64
2022/07/09 12:02:02;;;;;;;2.97;0.73;;;26.20;99.90;;;;;;5079502;28;20036;-62
2022/07/09 12:04:30;;;;;;;2.83;0.57;;;26.40;99.90;;;;;;5079336;28;20052;-65
2022/07/09 12:06:56;;;;;;;2.08;0.52;;;26.70;99.90;;;;;;5079325;28;20037;-67
2022/07/09 12:09:30;;;;;;;1.88;0.52;;;26.70;99.90;;;;;;5079178;28;20415;-62
2022/07/09 12:11:55;;;;;;;3.63;0.80;;;26.80;99.90;;;;;;5079270;28;20036;-61
2022/07/09 12:14:21;;;;;;;0.82;0.60;;;27.20;99.90;;;;;;5078430;28;20434;-63
2022/07/09 12:16:47;;;;;;;3.58;1.58;;;27.10;99.90;;;;;;5079191;28;20107;-67
2022/07/09 12:19:13;;;;;;;2.30;1.40;;;27.60;99.90;;;;;;5079036;28;20041;-64
2022/07/09 12:21:38;;;;;;;1.20;0.70;;;28.00;99.90;;;;;;5079112;28;20116;-63
2022/07/09 12:24:04;;;;;;;1.85;0.80;;;28.20;99.90;;;;;;5078893;28;20327;-62
2022/07/09 12:26:30;;;;;;;1.73;0.68;;;28.90;99.90;;;;;;5079091;28;20336;-65
2022/07/09 12:28:57;;;;;;;1.55;1.10;;;29.60;99.90;;;;;;5078900;28;20063;-64
2022/07/09 12:31:23;;;;;;;2.95;1.20;;;29.90;99.90;;;;;;5078213;28;20056;-66